Time;durP1;ratioP1;P1;durP2;ratioP2;P2;SDS_P1;SDS_P2;PMS_P1;PMS_P2;Temp;Humidity;BMP_temperature;BMP_pressure;BME280_temperature;BME280_humidity;BME280_pressure;Samples;Min_cycle;Max_cycle;Signal;HPM_P1;HPM_P2
2024/02/22 00:01:37;;;;;;;3.90;1.15;;;14.70;95.60;;;;;;5043465;28;20488;-57
2024/02/22 00:04:04;;;;;;;2.73;1.27;;;14.60;95.30;;;;;;5045919;28;20224;-55
2024/02/22 00:06:32;;;;;;;12.68;2.00;;;14.50;95.30;;;;;;5044331;28;20290;-55
2024/02/22 00:08:59;;;;;;;10.30;1.35;;;14.40;95.50;;;;;;5044869;28;20210;-55
2024/02/22 00:11:26;;;;;;;2.80;1.40;;;14.40;95.70;;;;;;5044157;28;20213;-55
2024/02/22 00:13:52;;;;;;;1.52;1.10;;;14.40;96.10;;;;;;5041520;28;20203;-55
2024/02/22 00:16:19;;;;;;;3.80;1.20;;;14.40;96.10;;;;;;5047952;28;20205;-55
2024/02/22 00:18:46;;;;;;;1.20;1.10;;;14.50;96.20;;;;;;5042244;28;20296;-56
2024/02/22 00:21:13;;;;;;;4.70;1.23;;;14.40;96.10;;;;;;5046367;28;20209;-55
2024/02/22 00:23:41;;;;;;;3.43;1.00;;;14.40;96.10;;;;;;5042630;28;20209;-56
2024/02/22 00:26:08;;;;;;;1.65;1.15;;;14.40;96.30;;;;;;5045786;28;20206;-55
2024/02/22 00:28:35;;;;;;;4.00;1.37;;;14.40;96.40;;;;;;5043706;28;20216;-55
2024/02/22 00:31:01;;;;;;;4.65;1.30;;;14.50;96.40;;;;;;5044560;28;20634;-54
2024/02/22 00:33:28;;;;;;;3.83;1.10;;;14.40;96.70;;;;;;5043930;28;20213;-56
2024/02/22 00:35:55;;;;;;;1.87;1.10;;;14.40;97.00;;;;;;5040359;28;20228;-55
2024/02/22 00:38:22;;;;;;;1.13;1.00;;;14.40;97.10;;;;;;5047878;28;20232;-54
2024/02/22 00:40:50;;;;;;;1.30;1.00;;;14.50;97.20;;;;;;5041154;28;20601;-55
2024/02/22 00:43:16;;;;;;;1.30;1.03;;;14.50;97.40;;;;;;5046821;28;20267;-56
2024/02/22 00:45:43;;;;;;;5.53;1.20;;;14.50;97.40;;;;;;5042284;28;20221;-55
2024/02/22 00:48:10;;;;;;;3.13;1.20;;;14.50;97.30;;;;;;5045556;28;20244;-55
2024/02/22 00:50:36;;;;;;;2.50;1.10;;;14.40;97.40;;;;;;5042580;28;20752;-55
2024/02/22 00:53:03;;;;;;;2.17;1.30;;;14.40;97.60;;;;;;5044538;28;20240;-55
2024/02/22 00:55:30;;;;;;;7.90;1.55;;;14.40;97.80;;;;;;5043971;28;20264;-54
2024/02/22 00:57:58;;;;;;;2.23;1.30;;;14.30;98.00;;;;;;5040521;28;20214;-55
2024/02/22 01:00:25;;;;;;;5.70;1.67;;;14.30;98.20;;;;;;5047104;28;20230;-55
2024/02/22 01:02:51;;;;;;;3.33;1.50;;;14.20;98.50;;;;;;5041095;28;20291;-55
2024/02/22 01:05:18;;;;;;;3.70;1.20;;;14.20;98.80;;;;;;5046399;28;20221;-55
2024/02/22 01:07:45;;;;;;;1.30;1.00;;;14.10;98.90;;;;;;5041568;28;20753;-55
2024/02/22 01:10:12;;;;;;;2.00;1.10;;;14.20;99.00;;;;;;5045611;28;20222;-59
2024/02/22 01:12:38;;;;;;;1.40;1.07;;;14.20;99.00;;;;;;5042549;28;20642;-54
2024/02/22 01:15:07;;;;;;;3.93;1.10;;;14.20;99.40;;;;;;5044626;28;20639;-55
2024/02/22 01:17:34;;;;;;;1.83;1.30;;;14.20;99.90;;;;;;5043239;28;20201;-55
2024/02/22 01:20:01;;;;;;;2.73;1.10;;;14.20;99.90;;;;;;5043820;28;20461;-54
2024/02/22 01:22:27;;;;;;;3.07;1.33;;;14.10;99.90;;;;;;5043265;28;20663;-55
2024/02/22 01:24:54;;;;;;;2.10;1.23;;;14.00;99.90;;;;;;5040453;28;20252;-55
2024/02/22 01:27:21;;;;;;;1.37;0.73;;;14.00;99.90;;;;;;5046705;28;20260;-56
2024/02/22 01:29:48;;;;;;;2.10;1.07;;;13.90;99.90;;;;;;5041271;28;20292;-54
2024/02/22 01:32:16;;;;;;;2.50;1.20;;;13.80;99.90;;;;;;5045377;28;20734;-55
2024/02/22 01:34:43;;;;;;;5.90;3.37;;;13.80;99.90;;;;;;5041757;28;20610;-54
2024/02/22 01:37:09;;;;;;;2.70;1.33;;;13.70;99.90;;;;;;5044933;28;20319;-54
2024/02/22 01:39:36;;;;;;;4.77;1.10;;;13.70;99.90;;;;;;5042808;28;20653;-55
2024/02/22 01:42:03;;;;;;;2.83;1.30;;;13.60;99.90;;;;;;5043631;28;20675;-54
2024/02/22 01:44:30;;;;;;;3.00;1.30;;;13.60;99.90;;;;;;5043425;28;20217;-55
2024/02/22 01:46:57;;;;;;;1.30;0.93;;;13.50;99.90;;;;;;5040084;28;20668;-55
2024/02/22 01:49:26;;;;;;;1.80;1.40;;;13.50;99.90;;;;;;5049574;28;20284;-54
2024/02/22 01:51:57;;;;;;;2.73;1.10;;;13.40;99.90;;;;;;5044162;28;20630;-55
2024/02/22 01:54:24;;;;;;;1.37;1.17;;;13.40;99.90;;;;;;5050586;28;20244;-55
2024/02/22 01:56:52;;;;;;;2.27;1.40;;;13.30;99.90;;;;;;5044934;28;20586;-53
2024/02/22 01:59:20;;;;;;;3.40;1.13;;;13.30;99.90;;;;;;5049534;28;20229;-53
2024/02/22 02:01:47;;;;;;;1.97;1.30;;;13.20;99.90;;;;;;5044714;28;20206;-55
2024/02/22 02:04:15;;;;;;;1.63;1.20;;;13.20;99.90;;;;;;5049088;28;20202;-55
2024/02/22 02:06:44;;;;;;;1.33;1.00;;;13.20;99.90;;;;;;5045919;28;20213;-54
2024/02/22 02:09:12;;;;;;;3.43;1.10;;;13.20;99.90;;;;;;5048523;28;20232;-55
2024/02/22 02:11:41;;;;;;;1.20;1.00;;;13.20;99.90;;;;;;5045674;28;20205;-54
2024/02/22 02:14:08;;;;;;;2.60;1.03;;;13.20;99.90;;;;;;5047937;28;20288;-53
2024/02/22 02:16:34;;;;;;;1.50;1.10;;;13.30;99.90;;;;;;5046325;28;20202;-55
2024/02/22 02:19:01;;;;;;;1.83;1.00;;;13.30;99.90;;;;;;5043232;28;20199;-54
2024/02/22 02:21:33;;;;;;;0.80;0.80;;;13.30;99.90;;;;;;5050254;28;20205;-54
2024/02/22 02:24:13;;;;;;;1.33;1.20;;;13.30;99.90;;;;;;5046777;28;20205;-54
2024/02/22 02:26:41;;;;;;;2.23;1.10;;;13.20;99.90;;;;;;5045503;28;20638;-54
2024/02/22 02:29:08;;;;;;;1.40;1.17;;;13.10;99.90;;;;;;5042980;28;20230;-54
2024/02/22 02:31:34;;;;;;;1.73;1.10;;;13.10;99.90;;;;;;5051288;28;20202;-56
2024/02/22 02:34:01;;;;;;;1.70;1.00;;;13.10;99.90;;;;;;5043064;28;20671;-54
2024/02/22 02:36:28;;;;;;;3.13;0.90;;;13.10;99.90;;;;;;5049863;28;20202;-54
2024/02/22 02:38:54;;;;;;;2.10;1.30;;;13.10;99.90;;;;;;5043315;28;20707;-54
2024/02/22 02:41:20;;;;;;;0.80;0.67;;;13.00;99.90;;;;;;5048760;28;20693;-54
2024/02/22 02:43:48;;;;;;;1.73;1.10;;;12.90;99.90;;;;;;5044272;28;20202;-55
2024/02/22 02:46:14;;;;;;;2.40;1.10;;;13.00;99.90;;;;;;5048191;28;20287;-56
2024/02/22 02:48:41;;;;;;;1.23;1.00;;;13.00;99.90;;;;;;5045209;28;20218;-55
2024/02/22 02:51:08;;;;;;;0.73;0.70;;;12.80;99.90;;;;;;5046790;28;20263;-55
2024/02/22 02:53:35;;;;;;;0.83;0.83;;;13.00;99.90;;;;;;5045806;28;20205;-56
2024/02/22 02:56:01;;;;;;;0.77;0.60;;;12.90;99.90;;;;;;5042636;28;20202;-55
2024/02/22 02:58:28;;;;;;;1.83;0.90;;;12.90;99.90;;;;;;5049910;28;20238;-54
2024/02/22 03:00:56;;;;;;;0.73;0.73;;;12.90;99.90;;;;;;5041281;28;20237;-55
2024/02/22 03:03:23;;;;;;;1.43;0.70;;;12.80;99.90;;;;;;5048728;28;20220;-54
2024/02/22 03:05:49;;;;;;;1.87;0.80;;;12.80;99.90;;;;;;5043522;28;20268;-55
2024/02/22 03:08:16;;;;;;;1.67;0.70;;;12.80;99.90;;;;;;5047723;28;20259;-55
2024/02/22 03:10:43;;;;;;;0.90;0.80;;;12.80;99.90;;;;;;5044531;28;20279;-55
2024/02/22 03:13:11;;;;;;;0.73;0.70;;;12.80;99.90;;;;;;5047008;28;20206;-55
2024/02/22 03:15:38;;;;;;;0.60;0.60;;;12.90;99.90;;;;;;5045178;28;20285;-55
2024/02/22 03:18:07;;;;;;;0.67;0.60;;;12.80;99.90;;;;;;5046186;28;20670;-54
2024/02/22 03:20:34;;;;;;;0.73;0.70;;;12.80;99.90;;;;;;5045042;28;20221;-54
2024/02/22 03:23:02;;;;;;;1.67;0.80;;;12.80;99.90;;;;;;5041855;28;20586;-54
2024/02/22 03:25:28;;;;;;;0.80;0.67;;;12.80;99.90;;;;;;5049084;28;20217;-54
2024/02/22 03:27:58;;;;;;;1.70;0.80;;;12.70;99.90;;;;;;5042628;28;20213;-54
2024/02/22 03:30:25;;;;;;;1.83;0.60;;;12.70;99.90;;;;;;5048141;28;20317;-54
2024/02/22 03:32:52;;;;;;;0.80;0.60;;;12.70;99.90;;;;;;5042877;28;20263;-54
2024/02/22 03:35:22;;;;;;;1.70;0.80;;;12.70;99.90;;;;;;5047499;28;20284;-54
2024/02/22 03:37:49;;;;;;;1.40;0.70;;;12.60;99.90;;;;;;5043485;28;20288;-54
2024/02/22 03:40:16;;;;;;;1.10;0.70;;;12.60;99.90;;;;;;5046837;28;20260;-55
2024/02/22 03:42:43;;;;;;;0.83;0.63;;;12.60;99.90;;;;;;5044351;28;20201;-54
2024/02/22 03:45:10;;;;;;;2.30;0.90;;;12.60;99.90;;;;;;5045836;28;20221;-54
2024/02/22 03:47:37;;;;;;;0.67;0.67;;;12.50;99.90;;;;;;5044922;28;20675;-54
2024/02/22 03:50:04;;;;;;;0.83;0.70;;;12.50;99.90;;;;;;5041256;28;20611;-56
2024/02/22 03:52:32;;;;;;;1.50;0.80;;;12.50;99.90;;;;;;5041221;28;20213;-55
2024/02/22 03:54:59;;;;;;;0.93;0.70;;;12.50;99.90;;;;;;5049640;28;20253;-54
2024/02/22 03:57:25;;;;;;;0.80;0.50;;;12.50;99.90;;;;;;5047987;28;20289;-54
2024/02/22 03:59:51;;;;;;;1.03;0.80;;;12.60;99.90;;;;;;5073461;22;20729;-60
2024/02/22 04:02:18;;;;;;;1.10;0.90;;;12.60;99.90;;;;;;5072343;28;20201;-61
2024/02/22 04:04:49;;;;;;;7.17;6.03;;;12.60;99.90;;;;;;5072934;28;20204;-60
2024/02/22 04:07:16;;;;;;;2.17;1.97;;;12.60;99.90;;;;;;5072852;28;20259;-60
2024/02/22 04:09:44;;;;;;;0.67;0.60;;;12.60;99.90;;;;;;5072157;28;20227;-61
2024/02/22 04:12:11;;;;;;;1.27;0.87;;;12.50;99.90;;;;;;5060225;28;20201;-60
2024/02/22 04:14:38;;;;;;;0.50;0.50;;;12.60;99.90;;;;;;5060749;28;20258;-59
2024/02/22 04:17:05;;;;;;;0.83;0.73;;;12.60;99.90;;;;;;5064622;28;20201;-60
2024/02/22 04:19:31;;;;;;;1.10;0.77;;;12.60;99.90;;;;;;5064324;28;20223;-61
2024/02/22 04:21:58;;;;;;;0.93;0.87;;;12.50;99.90;;;;;;5061358;28;20206;-61
2024/02/22 04:24:25;;;;;;;1.67;0.90;;;12.50;99.90;;;;;;5060667;28;20202;-60
2024/02/22 04:26:54;;;;;;;0.97;0.67;;;12.40;99.90;;;;;;5062465;28;20218;-60
2024/02/22 04:29:20;;;;;;;1.63;0.90;;;12.40;99.90;;;;;;5063874;28;20288;-61
2024/02/22 04:31:48;;;;;;;0.67;0.57;;;12.40;99.90;;;;;;5062110;28;20580;-60
2024/02/22 04:34:14;;;;;;;1.77;0.80;;;12.40;99.90;;;;;;5060597;28;20201;-61
2024/02/22 04:36:42;;;;;;;0.93;0.77;;;12.40;99.90;;;;;;5060885;28;20264;-61
2024/02/22 04:39:09;;;;;;;1.90;1.13;;;12.40;99.90;;;;;;5063837;28;20517;-61
2024/02/22 04:41:35;;;;;;;3.37;1.00;;;12.40;99.90;;;;;;5063600;28;20205;-61
2024/02/22 04:44:04;;;;;;;0.93;0.67;;;12.40;99.90;;;;;;5060489;28;20259;-59
2024/02/22 04:46:32;;;;;;;0.90;0.80;;;12.30;99.90;;;;;;5059968;28;20718;-60
2024/02/22 04:49:00;;;;;;;1.60;0.70;;;12.40;99.90;;;;;;5062823;28;20576;-60
2024/02/22 04:51:27;;;;;;;1.83;0.80;;;12.40;99.90;;;;;;5063216;28;20697;-60
2024/02/22 04:53:54;;;;;;;1.03;0.80;;;12.40;99.90;;;;;;5061507;28;20205;-59
2024/02/22 04:56:21;;;;;;;1.60;0.67;;;12.40;99.90;;;;;;5060265;28;20209;-59
2024/02/22 04:58:47;;;;;;;0.63;0.50;;;12.40;99.90;;;;;;5061003;28;20202;-59
2024/02/22 05:01:16;;;;;;;1.30;0.93;;;12.30;99.90;;;;;;5063268;28;20236;-62
2024/02/22 05:03:42;;;;;;;1.07;0.80;;;12.30;99.90;;;;;;5063172;28;20201;-60
2024/02/22 05:06:09;;;;;;;1.30;1.00;;;12.20;99.90;;;;;;5060185;28;20224;-60
2024/02/22 05:08:36;;;;;;;1.23;0.70;;;12.20;99.90;;;;;;5060063;28;20236;-61
2024/02/22 05:11:03;;;;;;;0.83;0.70;;;12.20;99.90;;;;;;5062754;28;20236;-61
2024/02/22 05:13:29;;;;;;;0.87;0.70;;;12.20;99.90;;;;;;5063469;28;20209;-61
2024/02/22 05:15:56;;;;;;;1.40;0.90;;;12.30;99.90;;;;;;5061028;28;20204;-59
2024/02/22 05:18:24;;;;;;;1.13;0.77;;;12.30;99.90;;;;;;5060070;28;20198;-60
2024/02/22 05:20:51;;;;;;;0.80;0.53;;;12.30;99.90;;;;;;5061035;28;20228;-60
2024/02/22 05:23:17;;;;;;;3.00;0.80;;;12.30;99.90;;;;;;5064615;28;20737;-60
2024/02/22 05:25:44;;;;;;;0.87;0.70;;;12.30;99.90;;;;;;5066590;28;20235;-59
2024/02/22 05:28:11;;;;;;;0.87;0.87;;;12.20;99.90;;;;;;5063866;28;20212;-60
2024/02/22 05:30:38;;;;;;;1.30;0.87;;;12.20;99.90;;;;;;5063676;28;20229;-60
2024/02/22 05:33:05;;;;;;;1.63;1.20;;;12.20;99.90;;;;;;5067230;28;20582;-61
2024/02/22 05:35:33;;;;;;;2.03;1.37;;;12.20;99.90;;;;;;5067353;28;20204;-60
2024/02/22 05:38:00;;;;;;;0.97;0.80;;;12.20;99.90;;;;;;5064381;28;20211;-60
2024/02/22 05:40:26;;;;;;;2.67;1.10;;;12.20;99.90;;;;;;5063366;28;20229;-60
2024/02/22 05:42:53;;;;;;;1.73;1.47;;;12.10;99.90;;;;;;5065425;28;20210;-60
2024/02/22 05:45:34;;;;;;;1.90;1.00;;;12.10;99.90;;;;;;5067074;28;20197;-60
2024/02/22 05:48:01;;;;;;;1.80;1.50;;;12.10;99.90;;;;;;5064418;28;20210;-60
2024/02/22 05:50:27;;;;;;;1.60;1.00;;;12.10;99.90;;;;;;5063435;28;20232;-60
2024/02/22 05:52:55;;;;;;;1.13;0.90;;;12.10;99.90;;;;;;5065138;28;20628;-61
2024/02/22 05:55:22;;;;;;;2.80;1.10;;;12.20;99.90;;;;;;5067244;28;20213;-60
2024/02/22 05:57:49;;;;;;;0.93;0.70;;;12.10;99.90;;;;;;5065713;28;20625;-60
2024/02/22 06:00:16;;;;;;;1.50;0.87;;;12.10;99.90;;;;;;5062864;28;20641;-61
2024/02/22 06:02:44;;;;;;;1.20;0.90;;;12.00;99.90;;;;;;5063494;28;20240;-60
2024/02/22 06:05:11;;;;;;;2.00;0.90;;;11.90;99.90;;;;;;5066615;28;20599;-62
2024/02/22 06:07:37;;;;;;;1.20;1.10;;;11.80;99.90;;;;;;5066514;28;20675;-60
2024/02/22 06:10:08;;;;;;;1.57;0.83;;;11.80;99.90;;;;;;5063343;28;20225;-60
2024/02/22 06:12:35;;;;;;;2.50;1.77;;;11.80;99.90;;;;;;5062941;28;20205;-61
2024/02/22 06:15:03;;;;;;;2.23;0.93;;;11.90;99.90;;;;;;5065569;28;20209;-61
2024/02/22 06:17:30;;;;;;;1.90;1.17;;;11.90;99.90;;;;;;5066263;28;20731;-60
2024/02/22 06:19:57;;;;;;;1.83;0.80;;;11.90;99.90;;;;;;5064217;28;20221;-60
2024/02/22 06:22:23;;;;;;;1.10;0.93;;;11.90;99.90;;;;;;5062507;28;20625;-60
2024/02/22 06:24:50;;;;;;;0.77;0.77;;;11.90;99.90;;;;;;5063906;28;20589;-61
2024/02/22 06:27:18;;;;;;;2.03;1.03;;;11.90;99.90;;;;;;5066262;28;20698;-61
2024/02/22 06:29:45;;;;;;;1.87;0.90;;;12.00;99.90;;;;;;5065772;28;20260;-62
2024/02/22 06:32:11;;;;;;;1.37;0.97;;;12.00;99.90;;;;;;5062511;28;20292;-60
2024/02/22 06:34:38;;;;;;;1.83;0.80;;;12.00;99.90;;;;;;5062331;28;20201;-61
2024/02/22 06:37:05;;;;;;;1.33;0.90;;;12.00;99.90;;;;;;5065819;28;20270;-60
2024/02/22 06:39:31;;;;;;;1.90;1.20;;;12.00;99.90;;;;;;5066145;28;20248;-60
2024/02/22 06:41:58;;;;;;;3.03;2.00;;;12.10;99.90;;;;;;5063545;28;20216;-60
2024/02/22 06:44:26;;;;;;;1.93;1.20;;;12.10;99.90;;;;;;5062340;28;20209;-62
2024/02/22 06:46:53;;;;;;;2.10;1.10;;;12.10;99.90;;;;;;5063688;28;20252;-61
2024/02/22 06:49:20;;;;;;;1.83;1.20;;;12.00;99.90;;;;;;5065665;28;20245;-60
2024/02/22 06:51:47;;;;;;;1.43;0.97;;;12.00;99.90;;;;;;5065126;28;20220;-60
2024/02/22 06:54:14;;;;;;;0.77;0.70;;;12.10;99.90;;;;;;5062597;28;20272;-61
2024/02/22 06:56:40;;;;;;;2.00;1.30;;;12.10;99.90;;;;;;5062497;28;20198;-60
2024/02/22 06:59:08;;;;;;;0.80;0.80;;;12.10;99.90;;;;;;5065255;28;20291;-60
2024/02/22 07:01:36;;;;;;;1.40;0.80;;;12.00;99.90;;;;;;5065242;28;20736;-60
2024/02/22 07:04:03;;;;;;;1.00;0.83;;;12.00;99.90;;;;;;5062546;28;20655;-61
2024/02/22 07:06:30;;;;;;;2.30;1.07;;;12.00;99.90;;;;;;5061694;28;20726;-60
2024/02/22 07:08:58;;;;;;;4.47;0.90;;;12.00;99.90;;;;;;5063777;28;20205;-60
2024/02/22 07:11:24;;;;;;;3.13;1.10;;;12.10;99.90;;;;;;5064972;28;20247;-60
2024/02/22 07:13:51;;;;;;;3.90;1.73;;;12.10;99.90;;;;;;5064097;28;20201;-60
2024/02/22 07:16:18;;;;;;;1.17;0.70;;;12.10;99.90;;;;;;5061771;28;20289;-60
2024/02/22 07:18:46;;;;;;;1.10;0.60;;;12.00;99.90;;;;;;5061784;28;20275;-60
2024/02/22 07:21:13;;;;;;;1.53;0.97;;;12.10;99.90;;;;;;5065220;28;20286;-60
2024/02/22 07:23:40;;;;;;;1.43;0.63;;;12.20;99.90;;;;;;5065280;28;20435;-59
2024/02/22 07:26:07;;;;;;;0.90;0.70;;;12.20;99.90;;;;;;5061745;28;20197;-60
2024/02/22 07:28:35;;;;;;;1.10;0.80;;;12.20;99.90;;;;;;5062124;28;20229;-59
2024/02/22 07:31:02;;;;;;;2.87;2.20;;;12.20;99.90;;;;;;5063711;28;20236;-60
2024/02/22 07:33:29;;;;;;;1.60;1.10;;;12.20;99.90;;;;;;5065056;28;20228;-60
2024/02/22 07:35:57;;;;;;;1.10;0.87;;;12.20;99.90;;;;;;5063165;28;20678;-60
2024/02/22 07:38:24;;;;;;;1.00;0.80;;;12.20;99.90;;;;;;5061217;28;20663;-60
2024/02/22 07:40:52;;;;;;;1.30;0.80;;;12.20;99.90;;;;;;5062035;28;20245;-62
2024/02/22 07:43:20;;;;;;;1.17;0.97;;;12.20;99.90;;;;;;5065039;28;20579;-61
2024/02/22 07:45:47;;;;;;;1.00;0.63;;;12.10;99.90;;;;;;5063605;28;20209;-60
2024/02/22 07:48:14;;;;;;;1.13;0.90;;;12.10;99.90;;;;;;5061415;28;20509;-60
2024/02/22 07:50:41;;;;;;;1.50;1.00;;;12.20;99.90;;;;;;5061062;28;20225;-60
2024/02/22 07:53:09;;;;;;;1.20;0.73;;;12.20;99.90;;;;;;5064376;28;20208;-60
2024/02/22 07:55:36;;;;;;;1.63;0.93;;;12.20;99.90;;;;;;5064772;28;20201;-60
2024/02/22 07:58:03;;;;;;;2.07;1.57;;;12.20;99.90;;;;;;5061833;28;20205;-60
2024/02/22 08:00:30;;;;;;;1.03;0.93;;;12.20;99.90;;;;;;5060638;28;20221;-61
2024/02/22 08:02:57;;;;;;;2.37;1.10;;;12.20;99.90;;;;;;5062564;28;20201;-61
2024/02/22 08:05:24;;;;;;;3.80;2.37;;;12.30;99.90;;;;;;5064616;28;20263;-60
2024/02/22 08:07:51;;;;;;;1.10;0.80;;;12.30;99.90;;;;;;5063295;28;20266;-59
2024/02/22 08:10:19;;;;;;;1.17;1.00;;;12.30;99.90;;;;;;5060497;28;20225;-60
2024/02/22 08:12:46;;;;;;;1.27;1.10;;;12.40;99.90;;;;;;5060459;28;20205;-60
2024/02/22 08:15:13;;;;;;;2.10;0.80;;;12.40;99.90;;;;;;5064431;28;20209;-60
2024/02/22 08:17:41;;;;;;;1.33;0.80;;;12.40;99.90;;;;;;5064156;28;20197;-60
2024/02/22 08:20:08;;;;;;;1.50;1.00;;;12.40;99.90;;;;;;5060685;28;20226;-60
2024/02/22 08:22:36;;;;;;;1.73;0.80;;;12.40;99.90;;;;;;5060521;28;20225;-59
2024/02/22 08:25:02;;;;;;;1.70;1.00;;;12.50;99.90;;;;;;5062866;28;20210;-60
2024/02/22 08:27:30;;;;;;;40.70;32.37;;;12.50;99.90;;;;;;5063908;28;20226;-59
2024/02/22 08:29:57;;;;;;;17.80;15.20;;;12.40;99.90;;;;;;5062236;28;20278;-59
2024/02/22 08:32:24;;;;;;;0.50;0.50;;;12.50;99.90;;;;;;5060201;28;20209;-61
2024/02/22 08:34:50;;;;;;;0.63;0.60;;;12.50;99.90;;;;;;5060867;28;20280;-61
2024/02/22 08:37:17;;;;;;;1.27;0.70;;;12.50;99.90;;;;;;5063697;28;20196;-61
2024/02/22 08:39:44;;;;;;;0.57;0.50;;;12.60;99.90;;;;;;5063534;28;20231;-60
2024/02/22 08:42:11;;;;;;;0.63;0.57;;;12.70;99.90;;;;;;5059798;28;20209;-60
2024/02/22 08:44:38;;;;;;;2.00;0.40;;;12.70;99.90;;;;;;5060328;28;20214;-60
2024/02/22 08:47:09;;;;;;;0.60;0.50;;;12.70;99.90;;;;;;5062694;28;20221;-60
2024/02/22 08:49:35;;;;;;;3.03;1.90;;;12.60;99.90;;;;;;5063414;28;20220;-60
2024/02/22 08:52:04;;;;;;;1.57;0.60;;;12.70;99.90;;;;;;5060856;28;20633;-60
2024/02/22 08:54:30;;;;;;;0.90;0.50;;;12.80;99.90;;;;;;5060698;28;20229;-60
2024/02/22 08:56:57;;;;;;;0.60;0.30;;;12.80;99.90;;;;;;5061098;28;20675;-60
2024/02/22 08:59:24;;;;;;;1.33;0.50;;;12.90;99.90;;;;;;5063145;28;20228;-59
2024/02/22 09:01:53;;;;;;;1.27;1.00;;;12.80;99.90;;;;;;5062407;28;20283;-60
2024/02/22 09:04:19;;;;;;;0.20;0.20;;;12.90;99.90;;;;;;5059914;28;20737;-60
2024/02/22 09:06:46;;;;;;;0.63;0.40;;;13.00;99.90;;;;;;5059717;28;20710;-60
2024/02/22 09:09:13;;;;;;;0.20;0.20;;;13.10;99.90;;;;;;5063070;28;20573;-61
2024/02/22 09:11:40;;;;;;;0.40;0.40;;;13.10;99.90;;;;;;5062978;28;20303;-60
2024/02/22 09:14:07;;;;;;;1.23;0.40;;;13.20;99.90;;;;;;5060284;28;20316;-60
2024/02/22 09:16:33;;;;;;;2.03;0.90;;;13.20;99.90;;;;;;5059667;28;20197;-60
2024/02/22 09:19:01;;;;;;;10.33;9.57;;;13.20;99.90;;;;;;5061201;28;20684;-59
2024/02/22 09:21:30;;;;;;;0.40;0.40;;;13.20;99.90;;;;;;5062826;28;20209;-60
2024/02/22 09:23:57;;;;;;;0.20;0.20;;;13.20;99.90;;;;;;5061610;28;20738;-60
2024/02/22 09:26:23;;;;;;;1.43;0.37;;;13.20;99.90;;;;;;5059746;28;20205;-60
2024/02/22 09:28:50;;;;;;;0.53;0.50;;;13.20;99.90;;;;;;5059855;28;20777;-60
2024/02/22 09:31:17;;;;;;;1.33;0.30;;;13.20;99.90;;;;;;5062501;28;20278;-60
2024/02/22 09:33:44;;;;;;;0.40;0.30;;;13.30;99.90;;;;;;5063037;28;20205;-60
2024/02/22 09:36:12;;;;;;;0.40;0.40;;;13.30;99.90;;;;;;5059742;28;20224;-62
2024/02/22 09:38:39;;;;;;;2.87;1.47;;;13.40;99.90;;;;;;5059753;28;20649;-59
2024/02/22 09:41:06;;;;;;;0.20;0.20;;;13.40;99.90;;;;;;5061633;28;20272;-60
2024/02/22 09:43:34;;;;;;;1.37;0.40;;;13.40;99.90;;;;;;5062930;28;20259;-59
2024/02/22 09:46:01;;;;;;;0.57;0.50;;;13.50;99.90;;;;;;5061142;28;20277;-59
2024/02/22 09:48:27;;;;;;;1.87;1.40;;;13.50;99.90;;;;;;5059241;28;20217;-60
2024/02/22 09:50:56;;;;;;;1.13;0.40;;;13.60;99.90;;;;;;5060067;28;20259;-60
2024/02/22 09:53:26;;;;;;;0.40;0.40;;;13.70;99.90;;;;;;5062930;28;20690;-60
2024/02/22 09:55:52;;;;;;;0.50;0.30;;;13.80;99.90;;;;;;5062227;28;20638;-60
2024/02/22 09:58:21;;;;;;;3.07;1.60;;;13.80;99.90;;;;;;5059278;28;20247;-60
2024/02/22 10:00:48;;;;;;;0.30;0.30;;;13.70;99.90;;;;;;5059169;28;20422;-59
2024/02/22 10:03:16;;;;;;;0.70;0.43;;;13.80;99.90;;;;;;5062764;28;20240;-59
2024/02/22 10:05:42;;;;;;;0.50;0.30;;;13.80;99.90;;;;;;5062964;28;20618;-58
2024/02/22 10:08:10;;;;;;;0.23;0.23;;;13.80;99.90;;;;;;5059838;28;20260;-59
2024/02/22 10:10:40;;;;;;;0.37;0.20;;;13.80;99.90;;;;;;5062265;28;20340;-58
2024/02/22 10:13:07;;;;;;;0.50;0.20;;;13.90;99.90;;;;;;5065432;28;20237;-59
2024/02/22 10:15:33;;;;;;;0.37;0.30;;;14.00;99.90;;;;;;5066142;28;20209;-60
2024/02/22 10:18:00;;;;;;;0.47;0.23;;;14.00;99.90;;;;;;5064570;28;20197;-59
2024/02/22 10:20:32;;;;;;;1.67;0.47;;;14.10;99.90;;;;;;5062625;28;20218;-58
2024/02/22 10:23:06;;;;;;;0.53;0.30;;;14.30;99.90;;;;;;5064246;28;20298;-59
2024/02/22 10:25:34;;;;;;;0.37;0.20;;;14.30;99.90;;;;;;5066280;28;20229;-58
2024/02/22 10:28:03;;;;;;;0.93;0.23;;;14.40;99.90;;;;;;5064166;28;20232;-58
2024/02/22 10:30:32;;;;;;;0.60;0.50;;;14.50;99.90;;;;;;5062626;28;20674;-59
2024/02/22 10:33:00;;;;;;;0.50;0.50;;;14.50;99.90;;;;;;5064030;28;20236;-58
2024/02/22 10:35:28;;;;;;;2.33;1.13;;;14.60;99.90;;;;;;5065860;28;20646;-58
2024/02/22 10:37:55;;;;;;;0.43;0.30;;;14.60;99.90;;;;;;5064989;28;20598;-58
2024/02/22 10:40:23;;;;;;;0.40;0.40;;;14.60;99.90;;;;;;5062028;28;20449;-58
2024/02/22 10:42:50;;;;;;;0.93;0.70;;;14.60;99.90;;;;;;5062396;28;20237;-60
2024/02/22 10:45:19;;;;;;;1.37;1.10;;;14.70;99.90;;;;;;5061586;28;20591;-63
2024/02/22 10:47:47;;;;;;;15.60;8.00;;;14.70;99.90;;;;;;5065210;28;20694;-61
2024/02/22 10:50:17;;;;;;;0.50;0.30;;;14.80;99.90;;;;;;5062419;28;20218;-61
2024/02/22 10:52:47;;;;;;;2.97;2.42;;;14.70;99.90;;;;;;5062188;28;20210;-58
2024/02/22 10:55:15;;;;;;;1.93;1.40;;;14.70;99.90;;;;;;5060279;28;20209;-65
2024/02/22 10:57:45;;;;;;;1.33;1.23;;;14.60;99.90;;;;;;5048137;28;20296;-62
2024/02/22 11:00:14;;;;;;;0.40;0.40;;;14.50;99.90;;;;;;5053201;28;20257;-65
2024/02/22 11:02:44;;;;;;;1.13;0.70;;;14.50;99.90;;;;;;5051854;28;20201;-64
2024/02/22 11:05:12;;;;;;;1.83;1.70;;;14.50;99.90;;;;;;5056388;28;20201;-66
2024/02/22 11:07:43;;;;;;;1.00;0.90;;;14.40;99.90;;;;;;5058235;28;20226;-57
2024/02/22 11:10:12;;;;;;;0.77;0.60;;;14.40;99.90;;;;;;5053517;28;20233;-56
2024/02/22 11:12:43;;;;;;;0.57;0.40;;;14.40;99.90;;;;;;5053046;28;20210;-57
2024/02/22 11:15:11;;;;;;;0.83;0.33;;;14.20;99.90;;;;;;5053349;28;20579;-56
2024/02/22 11:17:38;;;;;;;0.67;0.57;;;14.10;99.90;;;;;;5052820;28;20206;-61
2024/02/22 11:20:10;;;;;;;0.53;0.30;;;14.00;99.90;;;;;;5051546;28;20294;-66
2024/02/22 11:22:37;;;;;;;0.57;0.50;;;13.90;99.90;;;;;;5052179;28;20209;-61
2024/02/22 11:25:07;;;;;;;0.43;0.23;;;13.90;99.90;;;;;;5052979;28;20212;-62
2024/02/22 11:27:34;;;;;;;1.53;0.30;;;13.80;99.90;;;;;;5053484;28;20236;-61
2024/02/22 11:30:11;;;;;;;0.40;0.40;;;13.90;99.90;;;;;;5052693;28;20236;-59
2024/02/22 11:32:37;;;;;;;0.80;0.20;;;14.00;99.90;;;;;;5052714;28;20212;-62
2024/02/22 11:35:05;;;;;;;1.20;0.60;;;14.00;99.90;;;;;;5053274;28;20217;-58
2024/02/22 11:37:33;;;;;;;0.60;0.30;;;13.90;99.90;;;;;;5051795;28;20663;-60
2024/02/22 11:40:00;;;;;;;0.40;0.17;;;13.90;99.90;;;;;;5052795;28;20579;-58
2024/02/22 11:42:28;;;;;;;0.50;0.20;;;13.90;99.90;;;;;;5053161;28;20202;-59
2024/02/22 11:44:55;;;;;;;0.27;0.27;;;13.80;99.90;;;;;;5052746;28;20280;-60
2024/02/22 11:47:22;;;;;;;0.20;0.20;;;13.80;99.90;;;;;;5052857;28;20201;-61
2024/02/22 11:49:48;;;;;;;0.30;0.23;;;13.80;99.90;;;;;;5052575;28;20230;-61
2024/02/22 11:52:15;;;;;;;0.97;0.70;;;13.90;99.90;;;;;;5052260;28;20227;-64
2024/02/22 11:54:50;;;;;;;1.10;0.63;;;13.90;99.90;;;;;;5053353;28;20563;-62
2024/02/22 11:57:17;;;;;;;4.00;2.17;;;13.90;99.90;;;;;;5044527;28;20213;-56
2024/02/22 11:59:43;;;;;;;1.20;0.90;;;13.90;99.90;;;;;;5052288;28;20695;-57
2024/02/22 12:02:11;;;;;;;1.77;1.20;;;14.00;99.90;;;;;;5052062;28;20671;-57
2024/02/22 12:04:38;;;;;;;0.20;0.20;;;14.00;99.90;;;;;;5052708;28;20678;-56
2024/02/22 12:07:05;;;;;;;0.30;0.20;;;14.10;99.90;;;;;;5052355;28;20221;-55
2024/02/22 12:09:32;;;;;;;0.37;0.37;;;14.10;99.90;;;;;;5051739;28;20256;-59
2024/02/22 12:12:02;;;;;;;1.53;0.30;;;14.20;99.90;;;;;;5051704;28;20683;-61
2024/02/22 12:14:28;;;;;;;0.20;0.20;;;14.40;99.90;;;;;;5050505;28;20209;-58
2024/02/22 12:16:57;;;;;;;0.27;0.20;;;14.50;99.90;;;;;;5052635;28;20218;-62
2024/02/22 12:19:24;;;;;;;0.80;0.30;;;14.60;99.90;;;;;;5050956;28;20244;-58
2024/02/22 12:21:52;;;;;;;0.30;0.30;;;14.80;99.90;;;;;;5051738;28;20205;-58
2024/02/22 12:24:20;;;;;;;1.47;0.40;;;15.00;99.90;;;;;;5044042;28;20256;-58
2024/02/22 12:26:52;;;;;;;0.57;0.50;;;15.00;99.90;;;;;;5051665;28;20205;-58
2024/02/22 12:29:21;;;;;;;0.77;0.20;;;15.10;99.90;;;;;;5052387;28;20321;-59
2024/02/22 12:31:48;;;;;;;0.47;0.10;;;15.10;99.90;;;;;;5051958;28;20206;-59
2024/02/22 12:34:16;;;;;;;0.43;0.30;;;15.00;99.90;;;;;;5049078;28;20206;-58
2024/02/22 12:36:45;;;;;;;0.63;0.33;;;15.00;99.90;;;;;;5047164;28;20259;-59
2024/02/22 12:39:11;;;;;;;0.40;0.30;;;15.00;99.90;;;;;;5051563;28;20335;-58
2024/02/22 12:41:38;;;;;;;0.30;0.30;;;15.00;99.90;;;;;;5052022;28;20205;-60
2024/02/22 12:44:05;;;;;;;2.43;0.60;;;14.90;99.90;;;;;;5052039;28;20213;-58
2024/02/22 12:46:34;;;;;;;0.60;0.40;;;14.80;99.90;;;;;;5052216;28;20209;-58